Accueil
METAR-TAF:

METAR-TAF

Aéroports :

Nancy, France

Base aérienne 133 Nancy-Ochey

latitude: 48-35N, longitude: 005-58E, altitude: 336 m

Observation

Le bulletin a été fait il y a 20 minutes, à 03:30 UTC
Vent 5 kt de sud-est
Température 6°C
Humidité 100%
Pression 982 hPa
Visibilité: 7000 m
Ciel couvert à une hauteur de 1100 ft
pluie faible

METAR: LFSO 110330Z AUTO 13005KT 7000 -RA OVC011 06/06 Q0982

Heure: 04:50 (03:50 UTC)


TAF: absent

Observations et prévisions météorologiques de plus de 4000 aéroports (messages METAR et TAF).

Les stations disponibles sont représentées par des disques jaunes et rouges sur la carte.

Passer la souris dessus pour voir le nom de la station.

Cliquer dessus pour voir les observations et prévisions météorologiques.

Pour changer de carte: cliquez sur les boutons verts avec une croix noire pour zoomer, sur le bouton vert avec un tiret pour effectuer un zoom arrière, ou sur les flèches vertes pour les cartes adjacentes.


METAR-TAF: